Accueil
METAR-TAF:

METAR-TAF

Aéroports :

Aéroport de Cherbourg - Maupertus

Cherbourg, France

latitude: 49-39N, longitude: 001-28W, altitude: 138 m

Observation

Le bulletin a été fait il y a 12 minutes, à 12:30 UTC
Vent 8 kt de nord/nord-est, variant entre nord/nord-ouest et est/nord-est
Température 21°C
Humidité 53%
Pression 1019 hPa
Visibilité 10 km ou plus
pas de nuages en-dessous de 1500 mètres et pas de cumulonimbus.

METAR: LFRC 181230Z AUTO 03008KT 340V060 CAVOK 21/11 Q1019 NOSIG

Heure: 14:42 (12:42 UTC)

Prévision

Le bulletin a été fait il y a 1 heure et 42 minutes, à 11:00 UTC
Prévision valable du 18 à 12 UTC au 18 à 21 UTC
Vent 10 kt de nord
Visibilité 10 km ou plus
Nuages épars à une hauteur de 3500 ft
Evoluant progressivement
du 18 à 19 UTC au 18 à 21 UTC
Vent 3 kt de direction variable

TAF: LFRC 181100Z 1812/1821 01010KT 9999 SCT035 BECMG 1819/1821 VRB03KT

Observations et prévisions météorologiques de plus de 4000 aéroports (messages METAR et TAF).

Les stations disponibles sont représentées par des disques jaunes et rouges sur la carte.

Passer la souris dessus pour voir le nom de la station.

Cliquer dessus pour voir les observations et prévisions météorologiques.

Pour changer de carte: cliquez sur les boutons verts avec une croix noire pour zoomer, sur le bouton vert avec un tiret pour effectuer un zoom arrière, ou sur les flèches vertes pour les cartes adjacentes.


METAR-TAF: